Gulf Hills, Mississippi
Current Conditions -  °F | °C
As of 1:58 PM on Thursday 27 Nov 2014 (Local Time) from KBIX Reporting Station
Clear Clear  
Wind Chill: 60°   Ceiling: Unl
Heat Index: 60°   Visibility: 10mi
Dew Point: 30°   Wind: 6mph
Humidity: 32%   Direction: NA
Pressure: 30.36"   Gusts: NA
Location:  30.418°N, 88.7558°W
Report Text: KBIX 271958Z AUTO VRB05KT 10SM CLR 16/M01 A3036 RMK AO2 SLP284 T01561012
Loading
Personal Weather Stations






























Interactive Weather Map New forecast layout! Learn more

10-Day Weather Forecast

Advertisements
Track Severe Weather on mobile